createdAt,value
2022-10-21T00:00:54.196Z,10.18
2022-10-21T00:03:20.790Z,13.60
2022-10-21T00:05:47.344Z,13.13
2022-10-21T00:08:13.879Z,11.55
2022-10-21T00:10:40.324Z,10.65
2022-10-21T00:13:06.771Z,9.27
2022-10-21T00:15:33.139Z,13.73
2022-10-21T00:17:59.565Z,11.10
2022-10-21T00:20:25.947Z,10.43
2022-10-21T00:22:52.347Z,9.88
2022-10-21T00:25:18.799Z,11.25
2022-10-21T00:27:45.165Z,13.68
2022-10-21T00:30:11.951Z,10.93
2022-10-21T00:32:38.652Z,11.32
2022-10-21T00:35:05.691Z,12.80
2022-10-21T00:37:32.496Z,14.13
2022-10-21T00:39:58.932Z,12.15
2022-10-21T00:42:31.199Z,12.35
2022-10-21T00:45:06.618Z,10.23
2022-10-21T00:50:38.858Z,9.07
2022-10-21T00:53:11.094Z,11.77
2022-10-21T00:55:39.524Z,10.18
2022-10-21T00:58:05.887Z,10.38
2022-10-21T01:00:32.285Z,12.88
2022-10-21T01:02:58.685Z,11.80
2022-10-21T01:05:25.083Z,11.68
2022-10-21T01:07:51.500Z,11.25
2022-10-21T01:10:18.094Z,10.48
2022-10-21T01:12:48.961Z,12.75
2022-10-21T01:15:25.243Z,14.43
2022-10-21T01:18:18.167Z,13.13
2022-10-21T01:20:57.554Z,11.90
2022-10-21T01:23:44.207Z,14.52
2022-10-21T01:26:16.524Z,11.25
2022-10-21T01:29:10.884Z,13.50
2022-10-21T01:31:43.596Z,9.48
2022-10-21T01:34:31.688Z,12.30
2022-10-21T01:37:11.745Z,12.05
2022-10-21T01:39:41.987Z,11.38
2022-10-21T01:42:24.441Z,11.13
2022-10-21T01:45:03.094Z,10.95
2022-10-21T01:47:37.633Z,12.10
2022-10-21T01:50:13.363Z,10.95
2022-10-21T01:55:09.080Z,12.57
2022-10-21T01:57:37.514Z,11.57
2022-10-21T02:00:04.273Z,11.88
2022-10-21T02:02:32.263Z,10.65
2022-10-21T02:04:58.673Z,11.88
2022-10-21T02:07:25.053Z,13.05
2022-10-21T02:09:51.448Z,12.02
2022-10-21T02:12:17.824Z,13.70
2022-10-21T02:14:46.327Z,11.52
2022-10-21T02:17:14.234Z,11.13
2022-10-21T02:19:40.677Z,13.85
2022-10-21T02:22:07.055Z,11.80
2022-10-21T02:24:36.269Z,12.95
2022-10-21T02:27:02.658Z,12.38
2022-10-21T02:29:33.399Z,11.85
2022-10-21T02:32:25.855Z,12.60
2022-10-21T02:34:58.203Z,11.48
2022-10-21T02:37:30.794Z,14.23
2022-10-21T02:40:01.178Z,13.32
2022-10-21T02:42:31.104Z,12.27
2022-10-21T02:44:57.472Z,13.57
2022-10-21T02:47:25.357Z,10.98
2022-10-21T02:49:51.728Z,13.43
2022-10-21T02:52:18.113Z,11.77
2022-10-21T02:54:44.479Z,13.73
2022-10-21T02:57:10.877Z,12.98
2022-10-21T02:59:37.248Z,11.68
2022-10-21T03:02:03.728Z,15.43
2022-10-21T03:04:30.093Z,13.88
2022-10-21T03:06:56.492Z,11.52
2022-10-21T03:09:23.083Z,12.07
2022-10-21T03:11:49.476Z,14.35
2022-10-21T03:14:15.937Z,15.52
2022-10-21T03:16:42.320Z,14.50
2022-10-21T03:19:11.303Z,13.80
2022-10-21T03:21:37.666Z,12.38
2022-10-21T03:24:10.890Z,13.48
2022-10-21T03:26:46.236Z,14.43
2022-10-21T03:29:12.705Z,11.75
2022-10-21T03:31:39.101Z,13.82
2022-10-21T03:34:05.516Z,15.10
2022-10-21T03:36:31.924Z,14.95
2022-10-21T03:38:58.361Z,11.70
2022-10-21T03:41:24.816Z,14.45
2022-10-21T03:43:51.236Z,14.15
2022-10-21T03:46:17.641Z,11.88
2022-10-21T03:48:44.066Z,14.70
2022-10-21T03:51:10.463Z,14.95
2022-10-21T03:53:43.319Z,11.90
2022-10-21T03:56:10.097Z,13.32
2022-10-21T03:58:36.545Z,12.90
2022-10-21T04:01:03.018Z,14.52
2022-10-21T04:03:29.454Z,14.90
2022-10-21T04:05:55.870Z,12.82
2022-10-21T04:08:22.299Z,15.20
2022-10-21T04:10:48.741Z,14.90
2022-10-21T04:13:15.179Z,16.20
2022-10-21T04:15:41.553Z,14.48
2022-10-21T04:18:08.028Z,13.60
2022-10-21T04:20:34.449Z,14.70
2022-10-21T04:23:01.037Z,14.88
2022-10-21T04:25:27.451Z,17.08
2022-10-21T04:27:53.832Z,14.98
2022-10-21T04:30:20.226Z,11.60
2022-10-21T04:32:46.647Z,14.82
2022-10-21T04:35:13.117Z,13.70
2022-10-21T04:37:39.553Z,15.25
2022-10-21T04:40:07.823Z,11.57
2022-10-21T04:42:34.247Z,12.43
2022-10-21T04:45:00.644Z,14.40
2022-10-21T04:47:27.031Z,15.85
2022-10-21T04:49:53.442Z,12.73
2022-10-21T04:52:19.875Z,14.65
2022-10-21T04:54:46.350Z,13.38
2022-10-21T04:57:12.770Z,14.15
2022-10-21T04:59:39.185Z,13.45
2022-10-21T05:02:05.662Z,13.77
2022-10-21T05:04:32.072Z,12.10
2022-10-21T05:06:58.439Z,14.25
2022-10-21T05:09:24.828Z,13.02
2022-10-21T05:11:51.191Z,12.18
2022-10-21T05:14:20.075Z,14.77
2022-10-21T05:16:49.109Z,14.70
2022-10-21T05:19:15.518Z,14.00
2022-10-21T05:21:41.935Z,13.57
2022-10-21T05:24:08.382Z,13.05
2022-10-21T05:26:34.790Z,12.70
2022-10-21T05:29:01.222Z,13.25
2022-10-21T05:31:27.594Z,13.82
2022-10-21T05:33:53.956Z,14.05
2022-10-21T05:36:23.250Z,14.23
2022-10-21T05:38:50.524Z,12.82
2022-10-21T05:41:16.919Z,15.48
2022-10-21T05:43:43.359Z,14.88
2022-10-21T05:46:09.755Z,11.55
2022-10-21T05:48:36.748Z,14.88
2022-10-21T05:51:03.362Z,14.52
2022-10-21T05:53:29.765Z,16.63
2022-10-21T05:56:06.347Z,16.67
2022-10-21T05:58:33.356Z,20.10
2022-10-21T06:00:59.940Z,16.15
2022-10-21T06:03:28.380Z,17.80
2022-10-21T06:05:54.817Z,17.00
2022-10-21T06:08:21.209Z,15.43
2022-10-21T06:10:47.605Z,13.88
2022-10-21T06:13:14.250Z,12.35
2022-10-21T06:15:40.654Z,13.98
2022-10-21T06:18:07.025Z,16.83
2022-10-21T06:20:35.619Z,14.57
2022-10-21T06:23:01.996Z,15.25
2022-10-21T06:25:28.404Z,13.30
2022-10-21T06:27:54.798Z,14.75
2022-10-21T06:30:21.200Z,14.45
2022-10-21T06:32:47.576Z,15.05
2022-10-21T06:35:14.065Z,15.38
2022-10-21T06:37:40.743Z,13.32
2022-10-21T06:40:08.111Z,12.38
2022-10-21T06:42:34.971Z,17.55
2022-10-21T06:45:01.345Z,15.32
2022-10-21T06:47:27.759Z,17.02
2022-10-21T06:49:54.194Z,17.08
2022-10-21T06:52:20.638Z,15.43
2022-10-21T06:54:47.059Z,14.68
2022-10-21T06:57:13.475Z,17.73
2022-10-21T06:59:39.921Z,15.82
2022-10-21T07:02:06.310Z,15.93
2022-10-21T07:04:32.679Z,17.50
2022-10-21T07:06:59.056Z,15.88
2022-10-21T07:09:25.496Z,15.45
2022-10-21T07:11:51.943Z,14.73
2022-10-21T07:14:18.356Z,14.10
2022-10-21T07:16:44.769Z,13.30
2022-10-21T07:19:11.184Z,14.23
2022-10-21T07:21:37.621Z,15.27
2022-10-21T07:24:04.166Z,13.80
2022-10-21T07:26:31.647Z,17.45
2022-10-21T07:28:58.066Z,16.27
2022-10-21T07:31:24.525Z,17.60
2022-10-21T07:33:50.949Z,13.68
2022-10-21T07:36:19.291Z,17.50
2022-10-21T07:38:46.613Z,14.80
2022-10-21T07:41:19.275Z,15.02
2022-10-21T07:43:45.711Z,15.45
2022-10-21T07:46:12.119Z,15.00
2022-10-21T07:48:38.530Z,13.85
2022-10-21T07:51:09.776Z,16.45
2022-10-21T07:53:36.227Z,19.35
2022-10-21T07:56:12.257Z,16.05
2022-10-21T07:58:38.777Z,15.07
2022-10-21T08:01:06.139Z,14.30
2022-10-21T08:03:32.731Z,15.82
2022-10-21T08:05:59.160Z,16.17
2022-10-21T08:08:25.598Z,14.40
2022-10-21T08:10:52.400Z,15.15
2022-10-21T08:13:19.108Z,15.95
2022-10-21T08:15:46.429Z,16.88
2022-10-21T08:18:12.838Z,16.13
2022-10-21T08:20:40.237Z,18.75
2022-10-21T08:23:07.205Z,16.23
2022-10-21T08:25:34.313Z,15.13
2022-10-21T08:28:01.029Z,17.63
2022-10-21T08:30:27.703Z,15.13
2022-10-21T08:32:54.102Z,20.88
2022-10-21T08:35:20.488Z,16.65
2022-10-21T08:37:46.891Z,17.60
2022-10-21T08:40:13.275Z,19.17
2022-10-21T08:42:39.924Z,21.50
2022-10-21T08:45:06.814Z,18.27
2022-10-21T08:47:39.123Z,20.08
2022-10-21T08:50:14.221Z,20.23
2022-10-21T08:52:54.840Z,20.02
2022-10-21T08:55:35.520Z,18.25
2022-10-21T08:58:02.562Z,17.75
2022-10-21T09:00:44.185Z,17.42
2022-10-21T09:05:59.012Z,17.50
2022-10-21T09:08:33.794Z,18.50
2022-10-21T09:11:28.394Z,20.48
2022-10-21T09:14:31.602Z,16.42
2022-10-21T09:17:03.997Z,18.52
2022-10-21T09:19:48.765Z,24.05
2022-10-21T09:22:35.580Z,16.98
2022-10-21T09:25:15.498Z,17.92
2022-10-21T09:27:55.556Z,18.70
2022-10-21T09:30:22.835Z,21.15
2022-10-21T09:32:49.955Z,15.80
2022-10-21T09:35:57.859Z,17.02
2022-10-21T09:38:26.034Z,15.50
2022-10-21T09:40:53.099Z,17.25
2022-10-21T09:43:24.924Z,17.60
2022-10-21T09:45:51.334Z,16.42
2022-10-21T09:48:17.589Z,16.13
2022-10-21T09:50:54.409Z,18.23
2022-10-21T09:53:53.892Z,18.80
2022-10-21T09:56:22.505Z,16.83
2022-10-21T09:59:07.162Z,17.17
2022-10-21T10:01:34.406Z,17.90
2022-10-21T10:04:00.854Z,17.50
2022-10-21T10:06:37.917Z,17.23
2022-10-21T10:09:25.924Z,20.20
2022-10-21T10:11:54.510Z,16.50
2022-10-21T10:14:29.398Z,17.65
2022-10-21T10:16:56.966Z,20.23
2022-10-21T10:19:27.363Z,20.92
2022-10-21T10:22:20.070Z,21.67
2022-10-21T10:24:46.468Z,21.30
2022-10-21T10:27:18.909Z,21.85
2022-10-21T10:29:49.587Z,17.42
2022-10-21T10:32:15.982Z,17.90
2022-10-21T10:35:03.009Z,19.98
2022-10-21T10:37:33.000Z,18.98
2022-10-21T10:39:59.559Z,20.27
2022-10-21T10:42:28.144Z,18.23
2022-10-21T10:44:58.889Z,22.48
2022-10-21T10:47:29.819Z,18.45
2022-10-21T10:49:56.192Z,19.63
2022-10-21T10:52:23.488Z,19.63
2022-10-21T10:55:25.444Z,19.70
2022-10-21T10:58:06.222Z,20.48
2022-10-21T11:00:40.290Z,17.33
2022-10-21T11:03:07.043Z,19.92
2022-10-21T11:05:35.531Z,19.50
2022-10-21T11:08:21.357Z,18.75
2022-10-21T11:10:57.290Z,19.33
2022-10-21T11:13:24.011Z,18.00
2022-10-21T11:16:11.716Z,17.55
2022-10-21T11:18:46.431Z,17.88
2022-10-21T11:21:48.507Z,17.45
2022-10-21T11:24:29.157Z,16.83
2022-10-21T11:27:07.506Z,18.58
2022-10-21T11:29:42.712Z,15.90
2022-10-21T11:32:29.261Z,17.75
2022-10-21T11:35:14.885Z,18.30
2022-10-21T11:38:04.025Z,18.33
2022-10-21T11:40:49.228Z,18.05
2022-10-21T11:43:46.883Z,17.98
2022-10-21T11:46:38.340Z,17.42
2022-10-21T11:49:42.952Z,19.10
2022-10-21T11:52:09.186Z,16.08
2022-10-21T11:54:56.570Z,19.25
2022-10-21T11:58:10.028Z,19.23
2022-10-21T12:00:48.896Z,18.55
2022-10-21T12:03:33.668Z,16.08
2022-10-21T12:06:04.731Z,17.25
2022-10-21T12:08:35.535Z,15.07
2022-10-21T12:11:09.270Z,18.13
2022-10-21T12:13:42.245Z,17.85
2022-10-21T12:16:13.129Z,20.77
2022-10-21T12:18:44.088Z,15.55
2022-10-21T12:21:19.862Z,17.85
2022-10-21T12:23:47.803Z,14.75
2022-10-21T12:26:24.401Z,16.17
2022-10-21T12:28:50.724Z,17.50
2022-10-21T12:31:43.909Z,17.27
2022-10-21T12:36:42.052Z,17.35
2022-10-21T12:39:16.956Z,15.85
2022-10-21T12:41:45.279Z,15.38
2022-10-21T12:44:20.573Z,14.77
2022-10-21T12:46:49.193Z,14.60
2022-10-21T12:49:31.562Z,15.95
2022-10-21T12:52:21.343Z,16.65
2022-10-21T12:54:58.734Z,14.82
2022-10-21T12:57:40.829Z,16.35
2022-10-21T13:00:16.958Z,14.98
2022-10-21T13:03:05.906Z,12.20
2022-10-21T13:05:38.450Z,17.17
2022-10-21T13:08:22.825Z,16.13
2022-10-21T13:11:04.470Z,15.52
2022-10-21T13:13:34.805Z,18.35
2022-10-21T13:16:22.006Z,16.35
2022-10-21T13:18:57.694Z,17.40
2022-10-21T13:21:48.064Z,15.18
2022-10-21T13:24:20.176Z,16.50
2022-10-21T13:26:54.849Z,15.27
2022-10-21T13:29:22.544Z,9.70
2022-10-21T13:32:10.603Z,9.73
2022-10-21T13:34:41.606Z,8.25
2022-10-21T13:37:13.315Z,7.43
2022-10-21T13:39:39.950Z,5.72
2022-10-21T13:42:08.270Z,5.63
2022-10-21T13:44:36.688Z,6.45
2022-10-21T13:47:18.362Z,6.28
2022-10-21T13:49:51.098Z,6.68
2022-10-21T13:52:17.508Z,9.30
2022-10-21T13:54:43.901Z,6.88
2022-10-21T13:57:14.301Z,7.03
2022-10-21T13:59:40.703Z,6.55
2022-10-21T14:02:07.095Z,5.90
2022-10-21T14:04:33.701Z,8.20
2022-10-21T14:07:01.793Z,6.20
2022-10-21T14:09:31.495Z,7.22
2022-10-21T14:12:32.607Z,5.20
2022-10-21T14:15:05.278Z,7.88
2022-10-21T14:17:31.697Z,8.07
2022-10-21T14:20:12.120Z,8.45
2022-10-21T14:22:38.899Z,6.32
2022-10-21T14:25:05.749Z,8.05
2022-10-21T14:27:33.217Z,7.35
2022-10-21T14:30:01.888Z,6.38
2022-10-21T14:32:28.276Z,7.28
2022-10-21T14:35:01.795Z,6.95
2022-10-21T14:37:36.335Z,9.82
2022-10-21T14:40:30.555Z,4.57
2022-10-21T14:42:57.084Z,6.10
2022-10-21T14:45:29.248Z,5.88
2022-10-21T14:48:28.703Z,5.72
2022-10-21T14:50:57.831Z,6.93
2022-10-21T14:53:24.204Z,5.90
2022-10-21T14:55:57.695Z,5.55
2022-10-21T14:58:44.275Z,6.88
2022-10-21T15:01:18.184Z,7.57
2022-10-21T15:03:52.030Z,9.88
2022-10-21T15:06:20.675Z,8.52
2022-10-21T15:08:55.752Z,8.73
2022-10-21T15:11:25.992Z,6.78
2022-10-21T15:14:04.792Z,6.93
2022-10-21T15:16:31.296Z,6.57
2022-10-21T15:18:57.824Z,7.97
2022-10-21T15:21:33.396Z,5.70
2022-10-21T15:23:59.788Z,6.93
2022-10-21T15:26:29.958Z,5.68
2022-10-21T15:28:56.351Z,7.30
2022-10-21T15:31:24.220Z,9.95
2022-10-21T15:33:51.980Z,6.38
2022-10-21T15:36:18.346Z,9.77
2022-10-21T15:38:45.372Z,7.57
2022-10-21T15:41:23.408Z,8.52
2022-10-21T15:43:55.967Z,7.60
2022-10-21T15:46:22.890Z,8.23
2022-10-21T15:48:49.266Z,7.60
2022-10-21T15:51:15.646Z,8.60
2022-10-21T15:53:44.464Z,8.40
2022-10-21T15:56:14.717Z,7.85
2022-10-21T15:58:41.129Z,6.63
2022-10-21T16:01:17.180Z,8.70
2022-10-21T16:03:44.362Z,13.52
2022-10-21T16:06:18.771Z,8.75
2022-10-21T16:08:45.277Z,10.02
2022-10-21T16:11:13.286Z,9.65
2022-10-21T16:13:39.680Z,10.45
2022-10-21T16:16:16.061Z,12.43
2022-10-21T16:18:42.448Z,6.72
2022-10-21T16:21:14.496Z,9.80
2022-10-21T16:23:40.932Z,8.90
2022-10-21T16:26:21.095Z,7.05
2022-10-21T16:28:48.341Z,7.10
2022-10-21T16:31:14.782Z,9.98
2022-10-21T16:33:41.462Z,11.05
2022-10-21T16:36:34.618Z,8.73
2022-10-21T16:39:01.142Z,8.32
2022-10-21T16:41:27.569Z,8.63
2022-10-21T16:43:54.767Z,9.38
2022-10-21T16:46:26.338Z,8.48
2022-10-21T16:48:52.874Z,11.57
2022-10-21T16:51:20.072Z,9.73
2022-10-21T16:53:46.476Z,9.98
2022-10-21T16:56:13.082Z,9.63
2022-10-21T16:58:39.504Z,13.13
2022-10-21T17:01:06.274Z,10.85
2022-10-21T17:03:33.324Z,10.35
2022-10-21T17:05:59.742Z,10.90
2022-10-21T17:08:26.120Z,9.70
2022-10-21T17:10:52.519Z,10.48
2022-10-21T17:13:18.879Z,9.73
2022-10-21T17:15:45.592Z,12.68
2022-10-21T17:18:15.487Z,11.27
2022-10-21T17:20:42.346Z,12.05
2022-10-21T17:23:09.703Z,10.25
2022-10-21T17:25:36.086Z,9.63
2022-10-21T17:28:02.451Z,7.95
2022-10-21T17:30:28.901Z,10.80
2022-10-21T17:32:55.285Z,10.32
2022-10-21T17:35:21.689Z,12.65
2022-10-21T17:37:48.411Z,13.02
2022-10-21T17:40:22.318Z,9.35
2022-10-21T17:42:48.811Z,11.68
2022-10-21T17:45:15.725Z,10.20
2022-10-21T17:47:42.305Z,12.30
2022-10-21T17:50:09.042Z,12.15
2022-10-21T17:52:36.295Z,12.20
2022-10-21T17:55:03.216Z,11.60
2022-10-21T17:57:29.589Z,12.82
2022-10-21T17:59:56.127Z,15.38
2022-10-21T18:02:22.569Z,9.40
2022-10-21T18:04:48.932Z,12.30
2022-10-21T18:07:17.713Z,13.32
2022-10-21T18:09:44.369Z,13.27
2022-10-21T18:12:10.775Z,9.55
2022-10-21T18:14:37.173Z,12.25
2022-10-21T18:17:03.614Z,13.43
2022-10-21T18:19:29.984Z,13.45
2022-10-21T18:21:56.375Z,12.55
2022-10-21T18:24:22.760Z,11.48
2022-10-21T18:26:49.147Z,11.75
2022-10-21T18:29:15.528Z,11.25
2022-10-21T18:31:41.936Z,12.77
2022-10-21T18:34:08.300Z,12.13
2022-10-21T18:36:34.723Z,11.80
2022-10-21T18:39:01.113Z,12.07
2022-10-21T18:41:27.535Z,12.00
2022-10-21T18:43:58.079Z,14.55
2022-10-21T18:46:24.538Z,12.43
2022-10-21T18:48:50.928Z,11.10
2022-10-21T18:51:17.737Z,15.00
2022-10-21T18:53:47.177Z,14.25
2022-10-21T18:56:16.503Z,15.60
2022-10-21T18:58:42.969Z,16.67
2022-10-21T19:01:13.243Z,13.52
2022-10-21T19:03:39.668Z,14.32
2022-10-21T19:06:27.777Z,13.70
2022-10-21T19:08:54.220Z,14.32
2022-10-21T19:11:20.619Z,15.15
2022-10-21T19:13:47.114Z,13.60
2022-10-21T19:16:13.527Z,14.93
2022-10-21T19:18:39.950Z,17.83
2022-10-21T19:21:06.518Z,15.05
2022-10-21T19:23:32.922Z,16.40
2022-10-21T19:26:06.818Z,16.05
2022-10-21T19:28:34.031Z,18.17
2022-10-21T19:31:00.424Z,17.67
2022-10-21T19:33:27.291Z,16.70
2022-10-21T19:35:53.654Z,17.05
2022-10-21T19:38:39.631Z,17.42
2022-10-21T19:41:10.679Z,15.48
2022-10-21T19:43:37.156Z,16.98
2022-10-21T19:46:04.607Z,18.77
2022-10-21T19:48:31.158Z,18.30
2022-10-21T19:50:57.537Z,18.13
2022-10-21T19:53:24.028Z,15.52
2022-10-21T19:55:50.439Z,20.27
2022-10-21T19:58:16.922Z,16.35
2022-10-21T20:00:43.865Z,15.57
2022-10-21T20:03:10.301Z,19.38
2022-10-21T20:05:40.487Z,19.42
2022-10-21T20:08:06.924Z,17.83
2022-10-21T20:10:33.618Z,19.13
2022-10-21T20:12:59.995Z,18.20
2022-10-21T20:15:26.482Z,17.73
2022-10-21T20:17:52.856Z,18.73
2022-10-21T20:20:19.273Z,20.88
2022-10-21T20:22:45.644Z,15.95
2022-10-21T20:25:12.057Z,17.45
2022-10-21T20:27:38.651Z,16.50
2022-10-21T20:30:05.621Z,15.45
2022-10-21T20:32:31.999Z,17.50
2022-10-21T20:34:58.434Z,17.20
2022-10-21T20:37:24.877Z,15.60
2022-10-21T20:39:51.311Z,16.98
2022-10-21T20:42:17.691Z,14.13
2022-10-21T20:44:48.100Z,17.25
2022-10-21T20:47:14.587Z,19.48
2022-10-21T20:49:41.015Z,19.83
2022-10-21T20:52:07.484Z,18.90
2022-10-21T20:54:33.952Z,17.95
2022-10-21T20:57:00.541Z,19.70
2022-10-21T20:59:26.967Z,23.00
2022-10-21T21:01:53.464Z,16.42
2022-10-21T21:04:19.903Z,15.05
2022-10-21T21:06:48.668Z,21.92
2022-10-21T21:09:37.750Z,17.80
2022-10-21T21:12:01.733Z,18.55
2022-10-21T21:14:28.122Z,14.05
2022-10-21T21:16:54.573Z,14.73
2022-10-21T21:19:20.977Z,13.45
2022-10-21T21:21:47.358Z,16.10
2022-10-21T21:24:13.781Z,14.45
2022-10-21T21:26:40.197Z,16.20
2022-10-21T21:29:07.137Z,17.40
2022-10-21T21:31:33.895Z,17.23
2022-10-21T21:34:00.390Z,17.00
2022-10-21T21:36:26.887Z,14.80
2022-10-21T21:38:53.271Z,16.63
2022-10-21T21:41:20.391Z,17.25
2022-10-21T21:43:47.666Z,15.07
2022-10-21T21:46:14.132Z,16.55
2022-10-21T21:48:43.131Z,14.80
2022-10-21T21:51:12.514Z,17.02
2022-10-21T21:53:38.982Z,12.90
2022-10-21T21:56:05.900Z,15.52
2022-10-21T21:58:32.283Z,17.90
2022-10-21T22:01:17.034Z,13.52
2022-10-21T22:03:43.487Z,14.88
2022-10-21T22:06:10.099Z,13.82
2022-10-21T22:08:40.598Z,13.95
2022-10-21T22:11:11.764Z,18.20
2022-10-21T22:13:38.355Z,16.58
2022-10-21T22:16:05.295Z,18.75
2022-10-21T22:18:31.685Z,17.40
2022-10-21T22:20:59.587Z,18.52
2022-10-21T22:23:26.295Z,20.55
2022-10-21T22:25:52.681Z,19.15
2022-10-21T22:28:19.073Z,17.27
2022-10-21T22:30:45.497Z,20.30
2022-10-21T22:33:11.892Z,22.08
2022-10-21T22:35:38.290Z,16.77
2022-10-21T22:38:05.173Z,21.00
2022-10-21T22:40:42.854Z,21.10
2022-10-21T22:43:09.561Z,21.60
2022-10-21T22:45:35.974Z,18.45
2022-10-21T22:48:02.348Z,21.85
2022-10-21T22:50:28.736Z,21.85
2022-10-21T22:52:55.140Z,18.80
2022-10-21T22:55:21.516Z,20.17
2022-10-21T22:57:48.130Z,20.90
2022-10-21T23:00:14.680Z,21.50
2022-10-21T23:02:41.351Z,20.63
2022-10-21T23:05:08.126Z,23.90
2022-10-21T23:07:34.510Z,18.40
2022-10-21T23:10:00.978Z,21.42
2022-10-21T23:12:27.454Z,22.63
2022-10-21T23:14:53.838Z,19.30
2022-10-21T23:17:20.227Z,23.98
2022-10-21T23:19:46.640Z,21.23
2022-10-21T23:22:13.370Z,18.92
2022-10-21T23:24:39.750Z,15.82
2022-10-21T23:27:06.152Z,20.85
2022-10-21T23:29:32.533Z,18.17
2022-10-21T23:31:58.934Z,20.17
2022-10-21T23:34:25.351Z,18.98
2022-10-21T23:36:51.720Z,20.40
2022-10-21T23:39:18.109Z,19.95
2022-10-21T23:41:44.480Z,18.60
2022-10-21T23:44:10.874Z,17.85
2022-10-21T23:46:37.251Z,19.30
2022-10-21T23:49:03.730Z,18.88
2022-10-21T23:51:30.099Z,22.15
2022-10-21T23:53:56.506Z,18.73
2022-10-21T23:56:22.925Z,23.08
2022-10-21T23:58:49.329Z,18.55
